• Join FlightAware (Why Join?)
  • Login
  • US Flag 
09:47AM EDT


 

Airport Tracker/Info


-or-


 

Live Flight TrackerFlight Track Log ✈ UAL3821 ✈ 29-Apr-2013 ✈ KEWR - KMKE

Flight Track Log - Related Links

Times and Time Zones

All times are in EDT time to prevent confusion due to time zone crossing. See the UAL3821 flight status page for this flight to view local times or setup timezone preferences in your user account.

Time Position Orientation Groundspeed Altitude Reporting Facility
EDT Latitude Longitude Course Direction KTS MPH feet Rate Location/Type
10:41AM 40.6667 -74.1833 270° West 156 180 1,600  Level New York TRACON
10:42AM 40.6167 -74.2167 207° Southwest 197 227 3,300 2,100 Climbing New York TRACON
10:43AM 40.6333 -74.2833 288° West 275 316 5,800 2,400 Climbing New York TRACON
10:44AM 40.9862 -74.5175 319° Northwest  Level FlightAware Approximate
10:44AM 40.7000 -74.3167 339° North 265 305 8,100  Level New York TRACON
10:45AM 41.0597 -74.6099 316° Northwest  Level FlightAware Approximate
10:45AM 40.7667 -74.3500 339° North 278 320 10,100  Level New York TRACON
10:46AM 41.1333 -74.6903 270° West  Level FlightAware Approximate
10:46AM 40.8919 -74.3753 351° North 296 341 13,200  Level New York Center
10:47AM 40.9333 -74.3667 North 297 342 14,100 1,140 Climbing New York TRACON
10:47AM 40.9811 -74.3908 339° North 309 356 14,400 600 Climbing New York Center
10:48AM 41.0283 -74.4814 305° West 331 381 15,000 540 Climbing New York Center
10:49AM 41.0853 -74.5892 305° West 363 418 15,500 540 Climbing New York Center
10:50AM 41.1378 -74.7025 302° West 369 425 16,200 840 Climbing New York Center
10:51AM 41.1922 -74.8186 302° West 369 425 17,300 1,080 Climbing New York Center
10:52AM 41.2422 -74.9347 300° West 369 425 18,400 1,080 Climbing New York Center
10:53AM 41.2922 -75.0564 299° West 369 425 19,500 1,080 Climbing New York Center
10:54AM 41.3439 -75.1786 299° West 374 430 20,600 1,020 Climbing New York Center
10:55AM 41.3978 -75.2983 301° West 374 430 21,600 1,140 Climbing New York Center
10:56AM 41.4492 -75.4236 299° West 379 436 22,900 1,260 Climbing New York Center
10:57AM 41.4942 -75.5458 296° West 379 436 24,100 1,020 Climbing New York Center
10:58AM 41.5289 -75.6672 291° West 379 436 25,000 1,140 Climbing New York Center
10:59AM 41.5686 -75.8089 291° West 379 436 26,400 1,200 Climbing New York Center
11:00AM 41.6050 -75.9336 283° West 379 436 27,400 960 Climbing New York Center
11:01AM 41.6059 -75.9517 283° West  Level FlightAware Approximate
11:01AM 41.6428 -76.0672 291° West 379 436 28,400  Level New York Center
11:02AM 41.6786 -76.1950 291° West 379 436 29,500 1,200 Climbing New York Center
11:03AM 41.7144 -76.3228 291° West 379 436 30,800 1,140 Climbing New York Center
11:04AM 41.7481 -76.4481 290° West 374 430 31,800 900 Climbing New York Center
11:05AM 41.7819 -76.5650 291° West 374 430 32,700 840 Climbing New York Center
11:06AM 41.8172 -76.6961 290° West 374 430 33,600 960 Climbing New York Center
11:09AM 41.9044 -77.0089 291° West 377 434 35,900 720 Climbing Cleveland Center
11:10AM 41.9397 -77.1439 289° West 377 434 36,000  Climbing Cleveland Center
11:11AM 41.9792 -77.2814 291° West 388 447 36,000  Level Cleveland Center
11:12AM 42.0167 -77.4247 289° West 400 460 36,000  Level Cleveland Center
11:13AM 42.0539 -77.5711 289° West 405 466 36,000  Level Cleveland Center
11:14AM 42.0953 -77.7203 291° West 418 481 36,000  Level Cleveland Center
11:15AM 42.1322 -77.8672 289° West 418 481 36,000  Level Cleveland Center
11:16AM 42.1731 -78.0167 290° West 418 481 36,000  Level Cleveland Center
11:17AM 42.2097 -78.1639 289° West 418 481 36,000  Level Cleveland Center
11:18AM 42.2481 -78.3056 290° West 413 475 36,000  Level Cleveland Center
11:19AM 42.2864 -78.4528 289° West 413 475 36,000  Level Cleveland Center
11:20AM 42.3222 -78.5978 289° West 413 475 36,000  Level Cleveland Center
11:21AM 42.3600 -78.7428 289° West 413 475 36,000  Level Cleveland Center
11:22AM 42.3956 -78.8850 289° West 413 475 36,000  Level Cleveland Center
11:23AM 42.4267 -79.0164 288° West 413 475 36,000  Level Cleveland Center
11:24AM 42.4683 -79.1786 289° West 413 475 36,000  Level Cleveland Center
11:25AM 42.4950 -79.3272 284° West 413 475 36,000  Level Cleveland Center
11:26AM 42.5028 -79.4764 274° West 408 470 36,000  Level Cleveland Center
11:27AM 42.5106 -79.6311 274° West 408 470 36,000  Level Cleveland Center
11:28AM 42.5178 -79.7861 274° West 408 470 36,000  Level Cleveland Center
11:29AM 42.5253 -79.9436 274° West 413 475 36,000  Level Cleveland Center
11:30AM 42.5281 -80.1014 271° West 418 481 36,000  Level Cleveland Center
11:31AM 42.5369 -80.2592 274° West 418 481 36,000  Level Cleveland Center
11:32AM 42.5414 -80.4142 272° West 418 481 36,000  Level Cleveland Center
11:33AM 42.5478 -80.5606 273° West 409 471 36,000  Level Cleveland Center
11:34AM 42.5539 -80.7128 273° West 404 465 36,000  Level Cleveland Center
11:35AM 42.5619 -80.8708 274° West 410 472 36,000  Level Cleveland Center
11:36AM 42.5656 -81.0144 272° West 410 472 36,000  Level Cleveland Center
11:37AM 42.5714 -81.1667 273° West 402 463 36,000  Level Cleveland Center
11:38AM 42.5767 -81.3192 273° West 403 464 36,000  Level Cleveland Center
11:39AM 42.5819 -81.4517 273° West 403 464 36,000  Level Cleveland Center
11:40AM 42.6078 -81.6017 283° West 403 464 36,000  Level Cleveland Center
11:41AM 42.6336 -81.7431 284° West 403 464 36,000  Level Cleveland Center
11:42AM 42.6592 -81.8875 284° West 398 458 36,000  Level Cleveland Center
11:43AM 42.6844 -82.0350 283° West 393 452 36,000  Level Cleveland Center
11:44AM 42.7097 -82.1797 283° West 393 452 36,000  Level Cleveland Center
11:45AM 42.7347 -82.3272 283° West 393 452 36,000  Level Cleveland Center
11:46AM 42.7594 -82.4694 283° West 393 452 36,000  Level Cleveland Center
11:47AM 42.7842 -82.6172 283° West 393 452 36,000  Level Cleveland Center
11:48AM 42.8064 -82.7650 282° West 393 452 36,000  Level Cleveland Center
11:49AM 42.8328 -82.9075 284° West 393 452 36,000  Level Cleveland Center
11:50AM 42.8547 -83.0528 282° West 393 452 36,000  Level Cleveland Center
11:51AM 42.8786 -83.1983 283° West 393 452 36,000  Level Cleveland Center
11:52AM 42.9022 -83.3439 283° West 398 458 36,000  Level Cleveland Center
11:53AM 42.9258 -83.4925 282° West 398 458 36,000  Level Cleveland Center
11:54AM 42.9492 -83.6381 282° West 393 452 36,000  Level Cleveland Center
11:55AM 42.9700 -83.7867 281° West 398 458 36,000  Level Cleveland Center
11:56AM 42.9828 -83.9322 277° West 398 458 36,000  Level Cleveland Center
11:57AM 42.9969 -84.0833 277° West 398 458 36,000  Level Cleveland Center
11:59AM 43.0358 -84.4758 278° West 402 463 36,000  Level Chicago Center
12:00PM 43.0497 -84.6258 277° West 400 460 36,000  Level Chicago Center
12:01PM 43.0636 -84.7747 277° West 398 458 36,000  Level Chicago Center
12:02PM 43.0761 -84.9206 277° West 390 449 36,000  Level Chicago Center
12:03PM 43.0889 -85.0650 277° West 385 443 36,000  Level Chicago Center
12:04PM 43.1017 -85.2069 277° West 379 436 36,000  Level Chicago Center
12:05PM 43.1131 -85.3497 276° West 380 437 36,000  Level Chicago Center
12:06PM 43.1214 -85.5206 274° West 377 434 36,000  Level Chicago Center
12:07PM 43.1256 -85.6622 272° West 377 434 36,000  Level Chicago Center
12:08PM 43.1297 -85.8008 272° West 370 426 36,000 -300 Level Chicago Center
12:09PM 43.1325 -85.9403 272° West 374 430 35,400 -2,220 Descending Chicago Center
12:11PM 43.1358 -86.1050 272° West 374 430 31,500 -3,660 Descending Chicago Center
12:12PM 43.1392 -86.2511 272° West 387 445 27,900 -3,780 Descending Chicago Center
12:13PM 43.1411 -86.3983 271° West 390 449 23,800 -3,960 Descending Chicago Center
12:14PM 43.1450 -86.5492 272° West 396 456 19,800 -3,600 Descending Chicago Center
12:15PM 43.1472 -86.6950 271° West 378 435 16,500 -2,520 Descending Chicago Center
12:16PM 43.1486 -86.8261 271° West 333 383 14,700 -1,500 Descending Chicago Center
12:17PM 43.1514 -86.9647 272° West 306 352 13,500 -1,080 Descending Chicago Center
12:18PM 43.1464 -87.0947 267° West 340 391 12,500 -1,380 Descending Chicago Center
12:19PM 43.1072 -87.2083 245° Southwest 330 380 10,700 -1,320 Descending Chicago Center
12:20PM 43.0839 -87.3106 253° West 296 341 9,800 -1,260 Descending Chicago Center
12:21PM 43.0611 -87.4128 253° West 261 300 8,100 -1,560 Descending Chicago Center
12:22PM 43.0375 -87.5061 251° West 258 297 6,600 -1,500 Descending Chicago Center
12:23PM 43.0150 -87.6017 252° West 262 302 5,100 -1,560 Descending Chicago Center
12:24PM 42.9919 -87.6950 251° West 259 298 3,500 -1,620 Descending Chicago Center